createdAt,value
2018-09-10T00:01:51.095Z,19.18
2018-09-10T00:04:19.409Z,19.14
2018-09-10T00:06:47.796Z,19.12
2018-09-10T00:09:16.150Z,19.00
2018-09-10T00:11:44.766Z,19.02
2018-09-10T00:14:13.067Z,19.04
2018-09-10T00:16:41.605Z,19.04
2018-09-10T00:19:09.943Z,18.97
2018-09-10T00:21:38.334Z,18.85
2018-09-10T00:24:07.426Z,18.78
2018-09-10T00:26:36.281Z,18.77
2018-09-10T00:29:05.359Z,18.68
2018-09-10T00:31:33.711Z,18.65
2018-09-10T00:34:02.129Z,18.63
2018-09-10T00:36:30.588Z,18.58
2018-09-10T00:38:58.984Z,18.47
2018-09-10T00:41:27.411Z,18.44
2018-09-10T00:43:55.754Z,18.45
2018-09-10T00:46:24.143Z,18.43
2018-09-10T00:48:52.474Z,18.41
2018-09-10T00:51:20.940Z,18.54
2018-09-10T00:53:49.318Z,18.59
2018-09-10T00:56:17.686Z,18.55
2018-09-10T00:58:46.059Z,18.58
2018-09-10T01:01:14.475Z,18.52
2018-09-10T01:03:42.791Z,18.47
2018-09-10T01:06:11.148Z,18.38
2018-09-10T01:08:39.463Z,18.30
2018-09-10T01:11:08.405Z,18.29
2018-09-10T01:13:36.760Z,18.24
2018-09-10T01:16:05.084Z,18.31
2018-09-10T01:18:33.420Z,18.39
2018-09-10T01:21:02.738Z,18.25
2018-09-10T01:23:31.569Z,18.26
2018-09-10T01:26:00.000Z,18.28
2018-09-10T01:28:28.315Z,18.23
2018-09-10T01:30:56.640Z,18.27
2018-09-10T01:33:30.297Z,18.25
2018-09-10T01:35:58.622Z,18.22
2018-09-10T01:38:27.016Z,18.27
2018-09-10T01:40:55.345Z,18.23
2018-09-10T01:43:23.673Z,18.15
2018-09-10T01:45:52.000Z,18.19
2018-09-10T01:48:20.591Z,18.16
2018-09-10T01:50:49.100Z,18.09
2018-09-10T01:53:17.430Z,17.99
2018-09-10T01:55:45.764Z,17.91
2018-09-10T01:58:14.125Z,17.96
2018-09-10T02:00:42.463Z,17.95
2018-09-10T02:03:10.787Z,18.00
2018-09-10T02:05:39.123Z,18.01
2018-09-10T02:08:07.422Z,17.89
2018-09-10T02:10:35.916Z,17.95
2018-09-10T02:13:04.311Z,17.89
2018-09-10T02:15:36.819Z,17.88
2018-09-10T02:18:05.403Z,17.90
2018-09-10T02:20:33.732Z,17.85
2018-09-10T02:23:02.173Z,17.88
2018-09-10T02:25:30.502Z,17.94
2018-09-10T02:27:58.852Z,17.99
2018-09-10T02:30:27.272Z,17.95
2018-09-10T02:32:55.569Z,17.99
2018-09-10T02:35:23.921Z,18.01
2018-09-10T02:37:52.271Z,18.01
2018-09-10T02:40:20.586Z,17.87
2018-09-10T02:42:48.932Z,17.83
2018-09-10T02:45:17.267Z,17.87
2018-09-10T02:47:45.587Z,17.80
2018-09-10T02:50:13.941Z,17.83
2018-09-10T02:52:42.319Z,17.91
2018-09-10T02:55:10.815Z,17.92
2018-09-10T02:57:39.130Z,17.94
2018-09-10T03:00:08.295Z,17.89
2018-09-10T03:02:36.648Z,17.88
2018-09-10T03:05:04.921Z,17.87
2018-09-10T03:07:33.250Z,17.79
2018-09-10T03:10:01.612Z,17.77
2018-09-10T03:12:29.982Z,17.74
2018-09-10T03:14:58.317Z,17.74
2018-09-10T03:17:26.941Z,17.72
2018-09-10T03:19:55.280Z,17.72
2018-09-10T03:22:23.674Z,17.71
2018-09-10T03:24:52.051Z,17.71
2018-09-10T03:27:20.475Z,17.67
2018-09-10T03:29:49.193Z,17.62
2018-09-10T03:32:17.572Z,17.62
2018-09-10T03:34:45.899Z,17.55
2018-09-10T03:37:14.203Z,17.52
2018-09-10T03:39:42.549Z,17.50
2018-09-10T03:42:10.839Z,17.47
2018-09-10T03:44:39.197Z,17.46
2018-09-10T03:47:07.751Z,17.48
2018-09-10T03:49:36.129Z,17.52
2018-09-10T03:52:04.532Z,17.54
2018-09-10T03:54:32.847Z,17.57
2018-09-10T03:57:01.248Z,17.59
2018-09-10T03:59:29.605Z,17.59
2018-09-10T04:01:57.924Z,17.58
2018-09-10T04:04:26.265Z,17.62
2018-09-10T04:06:54.651Z,17.58
2018-09-10T04:09:22.975Z,17.58
2018-09-10T04:11:51.392Z,17.55
2018-09-10T04:14:19.957Z,17.55
2018-09-10T04:16:48.373Z,17.49
2018-09-10T04:19:16.741Z,17.52
2018-09-10T04:21:46.093Z,17.53
2018-09-10T04:24:14.355Z,17.50
2018-09-10T04:26:42.743Z,17.43
2018-09-10T04:29:11.103Z,17.35
2018-09-10T04:31:39.435Z,17.33
2018-09-10T04:34:07.807Z,17.41
2018-09-10T04:36:36.147Z,17.45
2018-09-10T04:39:06.142Z,17.44
2018-09-10T04:41:40.727Z,17.47
2018-09-10T04:44:09.173Z,17.47
2018-09-10T04:46:38.363Z,17.47
2018-09-10T04:49:07.544Z,17.46
2018-09-10T04:51:35.912Z,17.54
2018-09-10T04:54:04.888Z,17.52
2018-09-10T04:56:33.255Z,17.51
2018-09-10T04:59:02.198Z,17.53
2018-09-10T05:01:30.633Z,17.53
2018-09-10T05:03:58.964Z,17.58
2018-09-10T05:06:27.314Z,17.62
2018-09-10T05:08:55.647Z,17.69
2018-09-10T05:11:37.704Z,17.67
2018-09-10T05:14:22.305Z,17.70
2018-09-10T05:23:18.215Z,17.49
2018-09-10T05:26:08.760Z,17.53
2018-09-10T05:28:38.431Z,17.58
2018-09-10T05:31:07.121Z,17.64
2018-09-10T05:33:35.590Z,17.72
2018-09-10T05:36:04.620Z,17.77
2018-09-10T05:38:33.499Z,17.81
2018-09-10T05:41:02.211Z,17.74
2018-09-10T05:43:45.695Z,17.74
2018-09-10T05:46:23.523Z,17.81
2018-09-10T05:51:48.841Z,17.81
2018-09-10T05:54:22.361Z,17.87
2018-09-10T05:56:57.409Z,17.90
2018-09-10T05:59:27.783Z,17.88
2018-09-10T06:01:56.280Z,17.89
2018-09-10T06:04:24.741Z,17.95
2018-09-10T06:06:53.317Z,18.00
2018-09-10T06:09:22.129Z,18.07
2018-09-10T06:11:50.605Z,18.14
2018-09-10T06:14:19.166Z,18.20
2018-09-10T06:16:47.616Z,18.22
2018-09-10T06:19:16.016Z,18.26
2018-09-10T06:21:44.485Z,18.35
2018-09-10T06:24:13.167Z,18.40
2018-09-10T06:26:41.561Z,18.46
2018-09-10T06:29:10.066Z,18.51
2018-09-10T06:31:38.737Z,18.58
2018-09-10T06:34:07.351Z,18.67
2018-09-10T06:36:35.927Z,18.72
2018-09-10T06:39:06.445Z,18.82
2018-09-10T06:41:34.915Z,18.85
2018-09-10T06:44:03.349Z,18.89
2018-09-10T06:46:31.705Z,18.91
2018-09-10T06:49:00.282Z,18.86
2018-09-10T06:51:28.709Z,18.85
2018-09-10T06:53:58.349Z,18.84
2018-09-10T06:56:27.261Z,18.82
2018-09-10T06:58:57.121Z,18.80
2018-09-10T07:01:25.478Z,18.83
2018-09-10T07:03:54.992Z,18.85
2018-09-10T07:06:23.363Z,18.84
2018-09-10T07:08:52.897Z,18.82
2018-09-10T07:11:21.321Z,18.82
2018-09-10T07:13:50.563Z,18.82
2018-09-10T07:16:18.987Z,18.79
2018-09-10T07:18:48.040Z,18.79
2018-09-10T07:21:16.788Z,18.80
2018-09-10T07:23:45.229Z,18.83
2018-09-10T07:26:13.747Z,18.80
2018-09-10T07:28:42.111Z,18.81
2018-09-10T07:31:10.554Z,18.79
2018-09-10T07:33:39.022Z,18.71
2018-09-10T07:36:07.458Z,18.68
2018-09-10T07:38:35.965Z,18.58
2018-09-10T07:41:04.592Z,18.59
2018-09-10T07:43:33.240Z,18.65
2018-09-10T07:46:01.568Z,18.66
2018-09-10T07:48:30.128Z,18.66
2018-09-10T07:50:58.603Z,18.74
2018-09-10T07:53:27.223Z,18.82
2018-09-10T07:55:56.807Z,18.82
2018-09-10T07:58:30.243Z,18.84
2018-09-10T08:00:59.227Z,18.81
2018-09-10T08:03:27.835Z,18.80
2018-09-10T08:05:57.774Z,18.83
2018-09-10T08:08:30.983Z,18.84
2018-09-10T08:11:01.578Z,18.84
2018-09-10T08:13:34.359Z,18.90
2018-09-10T08:16:02.845Z,18.87
2018-09-10T08:18:31.563Z,18.92
2018-09-10T08:21:05.187Z,18.98
2018-09-10T08:23:33.679Z,19.01
2018-09-10T08:26:10.016Z,19.01
2018-09-10T08:28:39.174Z,19.07
2018-09-10T08:31:17.548Z,19.04
2018-09-10T08:33:47.981Z,19.12
2018-09-10T08:36:17.717Z,19.23
2018-09-10T08:38:46.276Z,19.27
2018-09-10T08:41:15.706Z,19.34
2018-09-10T08:43:48.596Z,19.45
2018-09-10T08:46:24.332Z,19.59
2018-09-10T08:48:54.659Z,19.74
2018-09-10T08:51:25.259Z,19.85
2018-09-10T08:53:54.096Z,20.00
2018-09-10T08:56:22.763Z,20.00
2018-09-10T08:58:51.415Z,20.01
2018-09-10T09:01:19.846Z,20.12
2018-09-10T09:03:48.213Z,20.31
2018-09-10T09:06:16.735Z,20.46
2018-09-10T09:08:45.193Z,20.68
2018-09-10T09:11:19.183Z,20.98
2018-09-10T09:13:55.841Z,21.10
2018-09-10T09:16:24.909Z,21.10
2018-09-10T09:18:54.566Z,21.07
2018-09-10T09:21:24.946Z,20.96
2018-09-10T09:23:56.545Z,20.85
2018-09-10T09:26:25.164Z,20.78
2018-09-10T09:28:53.897Z,20.68
2018-09-10T09:31:27.575Z,20.68
2018-09-10T09:33:57.458Z,20.74
2018-09-10T09:36:31.222Z,20.83
2018-09-10T09:39:05.810Z,20.92
2018-09-10T09:41:39.604Z,20.95
2018-09-10T09:44:13.294Z,20.97
2018-09-10T09:46:41.875Z,20.96
2018-09-10T09:49:10.382Z,20.95
2018-09-10T09:51:38.802Z,20.95
2018-09-10T09:54:07.366Z,20.88
2018-09-10T09:56:35.975Z,21.03
2018-09-10T09:59:04.405Z,21.09
2018-09-10T10:01:38.122Z,21.21
2018-09-10T10:04:10.836Z,21.18
2018-09-10T10:06:39.371Z,21.25
2018-09-10T10:09:09.699Z,21.31
2018-09-10T10:11:38.693Z,21.43
2018-09-10T10:14:08.046Z,21.48
2018-09-10T10:16:37.587Z,21.64
2018-09-10T10:19:06.265Z,21.86
2018-09-10T10:21:35.274Z,22.17
2018-09-10T10:24:03.786Z,22.35
2018-09-10T10:26:33.320Z,22.64
2018-09-10T10:29:02.602Z,22.84
2018-09-10T10:31:43.264Z,22.89
2018-09-10T10:34:13.287Z,22.91
2018-09-10T10:36:48.210Z,23.04
2018-09-10T10:39:18.032Z,23.25
2018-09-10T10:41:47.814Z,23.36
2018-09-10T10:44:16.894Z,23.55
2018-09-10T10:46:52.398Z,23.57
2018-09-10T10:49:24.238Z,23.86
2018-09-10T10:51:54.645Z,23.81
2018-09-10T10:54:23.717Z,23.60
2018-09-10T10:56:53.880Z,23.64
2018-09-10T10:59:22.535Z,23.41
2018-09-10T11:01:53.027Z,23.36
2018-09-10T11:04:21.851Z,23.64
2018-09-10T11:06:50.775Z,24.06
2018-09-10T11:09:19.283Z,24.06
2018-09-10T11:11:47.898Z,23.91
2018-09-10T11:14:16.486Z,23.88
2018-09-10T11:16:45.541Z,24.05
2018-09-10T11:19:15.150Z,24.22
2018-09-10T11:21:44.424Z,24.37
2018-09-10T11:24:13.069Z,24.44
2018-09-10T11:26:41.854Z,24.69
2018-09-10T11:29:12.608Z,24.91
2018-09-10T11:31:41.063Z,25.01
2018-09-10T11:34:09.767Z,25.15
2018-09-10T11:36:38.198Z,25.12
2018-09-10T11:39:10.300Z,25.14
2018-09-10T11:41:40.904Z,25.08
2018-09-10T11:44:12.741Z,24.97
2018-09-10T11:46:43.695Z,24.90
2018-09-10T11:49:21.163Z,24.79
2018-09-10T11:51:50.888Z,24.60
2018-09-10T11:54:21.130Z,24.44
2018-09-10T11:56:49.838Z,24.60
2018-09-10T11:59:19.015Z,24.66
2018-09-10T12:01:48.366Z,24.72
2018-09-10T12:04:24.891Z,24.70
2018-09-10T12:06:53.654Z,24.64
2018-09-10T12:09:23.438Z,24.54
2018-09-10T12:11:55.053Z,24.27
2018-09-10T12:17:12.318Z,24.02
2018-09-10T12:19:44.021Z,23.97
2018-09-10T12:22:13.150Z,23.97
2018-09-10T12:24:42.263Z,23.96
2018-09-10T12:27:12.513Z,23.96
2018-09-10T12:29:45.898Z,23.94
2018-09-10T12:32:14.768Z,23.80
2018-09-10T12:34:44.245Z,23.71
2018-09-10T12:37:16.055Z,23.67
2018-09-10T12:42:30.488Z,23.76
2018-09-10T12:45:00.004Z,23.65
2018-09-10T12:47:29.050Z,23.57
2018-09-10T12:49:57.585Z,23.50
2018-09-10T12:52:27.203Z,23.55
2018-09-10T12:54:56.186Z,23.45
2018-09-10T12:57:25.435Z,23.39
2018-09-10T12:59:54.071Z,23.34
2018-09-10T13:02:22.518Z,23.15
2018-09-10T13:04:51.159Z,23.05
2018-09-10T13:07:19.533Z,22.98
2018-09-10T13:09:47.961Z,22.96
2018-09-10T13:12:16.586Z,22.94
2018-09-10T13:14:45.040Z,22.96
2018-09-10T13:17:13.686Z,22.87
2018-09-10T13:19:42.286Z,22.83
2018-09-10T13:22:10.884Z,22.84
2018-09-10T13:24:39.527Z,22.83
2018-09-10T13:27:08.148Z,22.86
2018-09-10T13:29:36.614Z,22.86
2018-09-10T13:32:05.134Z,22.84
2018-09-10T13:34:33.613Z,22.85
2018-09-10T13:37:02.682Z,22.84
2018-09-10T13:39:31.144Z,22.90
2018-09-10T13:41:59.745Z,22.96
2018-09-10T13:44:28.138Z,22.99
2018-09-10T13:46:56.564Z,22.98
2018-09-10T13:49:25.124Z,22.96
2018-09-10T13:51:53.675Z,22.99
2018-09-10T13:54:22.272Z,22.93
2018-09-10T13:56:50.883Z,22.80
2018-09-10T13:59:19.356Z,22.74
2018-09-10T14:01:47.763Z,22.64
2018-09-10T14:04:16.160Z,22.53
2018-09-10T14:06:44.541Z,22.48
2018-09-10T14:09:12.930Z,22.49
2018-09-10T14:11:41.501Z,22.55
2018-09-10T14:14:10.007Z,22.58
2018-09-10T14:16:38.506Z,22.55
2018-09-10T14:19:07.784Z,22.56
2018-09-10T14:21:36.329Z,22.57
2018-09-10T14:24:04.824Z,22.53
2018-09-10T14:26:39.979Z,22.45
2018-09-10T14:29:08.400Z,22.34
2018-09-10T14:31:39.649Z,22.32
2018-09-10T14:34:08.846Z,22.38
2018-09-10T14:36:38.441Z,22.32
2018-09-10T14:39:08.903Z,22.32
2018-09-10T14:41:38.127Z,22.36
2018-09-10T14:44:06.720Z,22.34
2018-09-10T14:46:35.938Z,22.34
2018-09-10T14:49:04.462Z,22.26
2018-09-10T14:51:33.097Z,22.22
2018-09-10T14:54:01.705Z,22.24
2018-09-10T14:56:30.221Z,22.26
2018-09-10T14:58:58.715Z,22.28
2018-09-10T15:01:27.124Z,22.25
2018-09-10T15:03:55.700Z,22.23
2018-09-10T15:06:24.075Z,22.15
2018-09-10T15:08:52.506Z,22.10
2018-09-10T15:11:21.015Z,22.05
2018-09-10T15:13:49.545Z,22.09
2018-09-10T15:16:18.306Z,22.13
2018-09-10T15:18:46.796Z,22.11
2018-09-10T15:21:15.293Z,22.13
2018-09-10T15:23:43.761Z,22.11
2018-09-10T15:26:12.366Z,22.02
2018-09-10T15:28:40.646Z,22.00
2018-09-10T15:31:09.136Z,22.04
2018-09-10T15:33:37.701Z,22.13
2018-09-10T15:36:06.811Z,22.12
2018-09-10T15:38:35.533Z,22.09
2018-09-10T15:41:04.165Z,22.06
2018-09-10T15:43:33.096Z,22.03
2018-09-10T15:46:01.996Z,22.00
2018-09-10T15:48:30.610Z,22.02
2018-09-10T15:50:59.813Z,22.06
2018-09-10T15:53:28.300Z,22.06
2018-09-10T15:55:56.810Z,22.05
2018-09-10T15:58:26.922Z,22.02
2018-09-10T16:00:55.644Z,22.02
2018-09-10T16:03:24.446Z,22.03
2018-09-10T16:05:52.968Z,21.96
2018-09-10T16:08:21.408Z,21.98
2018-09-10T16:10:49.806Z,21.93
2018-09-10T16:13:18.271Z,21.91
2018-09-10T16:15:48.524Z,21.88
2018-09-10T16:18:17.238Z,21.89
2018-09-10T16:20:45.826Z,21.83
2018-09-10T16:23:15.874Z,21.83
2018-09-10T16:25:45.758Z,21.75
2018-09-10T16:28:14.608Z,21.77
2018-09-10T16:30:43.203Z,21.70
2018-09-10T16:33:11.554Z,21.67
2018-09-10T16:35:39.891Z,21.69
2018-09-10T16:38:08.446Z,21.65
2018-09-10T16:40:37.067Z,21.60
2018-09-10T16:43:06.033Z,21.61
2018-09-10T16:45:36.523Z,21.53
2018-09-10T16:48:06.634Z,21.49
2018-09-10T16:50:35.527Z,21.47
2018-09-10T16:53:04.650Z,21.42
2018-09-10T16:55:33.114Z,21.39
2018-09-10T16:58:06.610Z,21.37
2018-09-10T17:00:36.006Z,21.37
2018-09-10T17:03:06.288Z,21.34
2018-09-10T17:05:48.459Z,21.33
2018-09-10T17:08:20.909Z,21.28
2018-09-10T17:10:53.163Z,21.24
2018-09-10T17:13:22.854Z,21.19
2018-09-10T17:15:54.572Z,21.31
2018-09-10T17:18:24.893Z,21.29
2018-09-10T17:20:53.497Z,21.29
2018-09-10T17:23:21.949Z,21.24
2018-09-10T17:25:54.719Z,21.25
2018-09-10T17:28:23.270Z,21.24
2018-09-10T17:30:52.411Z,21.19
2018-09-10T17:33:21.745Z,21.17
2018-09-10T17:35:53.530Z,21.14
2018-09-10T17:38:23.554Z,21.09
2018-09-10T17:40:53.005Z,21.04
2018-09-10T17:43:25.413Z,21.09
2018-09-10T17:45:54.536Z,21.13
2018-09-10T17:48:23.053Z,21.15
2018-09-10T17:50:51.515Z,21.04
2018-09-10T17:53:20.394Z,21.01
2018-09-10T17:55:49.914Z,20.94
2018-09-10T17:58:18.470Z,20.88
2018-09-10T18:00:48.388Z,20.86
2018-09-10T18:03:17.503Z,20.87
2018-09-10T18:05:46.080Z,20.84
2018-09-10T18:08:15.694Z,20.88
2018-09-10T18:10:44.937Z,20.92
2018-09-10T18:13:13.688Z,20.88
2018-09-10T18:15:43.829Z,20.86
2018-09-10T18:18:12.827Z,20.80
2018-09-10T18:20:43.096Z,20.86
2018-09-10T18:23:12.805Z,20.84
2018-09-10T18:28:10.274Z,20.81
2018-09-10T18:30:40.306Z,20.75
2018-09-10T18:33:10.075Z,20.81
2018-09-10T18:35:39.494Z,20.78
2018-09-10T18:38:10.957Z,20.76
2018-09-10T18:40:41.375Z,20.76
2018-09-10T18:43:12.083Z,20.79
2018-09-10T18:45:45.234Z,20.73
2018-09-10T18:48:16.624Z,20.78
2018-09-10T18:50:46.761Z,20.83
2018-09-10T18:53:23.062Z,20.77
2018-09-10T18:55:52.714Z,20.77
2018-09-10T18:58:22.841Z,20.75
2018-09-10T19:00:53.815Z,20.81
2018-09-10T19:03:29.881Z,20.81
2018-09-10T19:05:59.386Z,20.80
2018-09-10T19:08:30.153Z,20.73
2018-09-10T19:10:59.355Z,20.71
2018-09-10T19:13:32.217Z,20.73
2018-09-10T19:16:01.805Z,20.71
2018-09-10T19:18:36.768Z,20.73
2018-09-10T19:21:07.171Z,20.71
2018-09-10T19:23:37.424Z,20.69
2018-09-10T19:26:07.545Z,20.66
2018-09-10T19:28:37.878Z,20.61
2018-09-10T19:31:07.261Z,20.57
2018-09-10T19:33:38.561Z,20.55
2018-09-10T19:36:11.550Z,20.49
2018-09-10T19:38:45.475Z,20.43
2018-09-10T19:41:19.779Z,20.40
2018-09-10T19:44:00.428Z,20.36
2018-09-10T19:46:34.385Z,20.38
2018-09-10T19:49:04.319Z,20.37
2018-09-10T19:51:35.179Z,20.34
2018-09-10T19:54:04.055Z,20.34
2018-09-10T19:56:33.013Z,20.34
2018-09-10T19:59:02.345Z,20.33
2018-09-10T20:01:33.243Z,20.35
2018-09-10T20:04:04.362Z,20.31
2018-09-10T20:06:45.225Z,20.22
2018-09-10T20:09:23.352Z,20.13
2018-09-10T20:11:54.075Z,20.08
2018-09-10T20:14:28.081Z,20.05
2018-09-10T20:17:09.916Z,20.01
2018-09-10T20:19:41.689Z,19.95
2018-09-10T20:22:17.058Z,19.96
2018-09-10T20:24:46.982Z,19.99
2018-09-10T20:27:15.884Z,20.00
2018-09-10T20:29:46.816Z,19.92
2018-09-10T20:32:22.035Z,19.90
2018-09-10T20:35:02.730Z,19.91
2018-09-10T20:37:32.350Z,19.92
2018-09-10T20:40:02.571Z,19.88
2018-09-10T20:42:31.761Z,19.91
2018-09-10T20:45:01.175Z,19.89
2018-09-10T20:47:30.455Z,19.96
2018-09-10T20:50:00.413Z,19.94
2018-09-10T20:52:29.705Z,19.90
2018-09-10T20:55:01.775Z,19.79
2018-09-10T20:57:30.794Z,19.77
2018-09-10T20:59:59.548Z,19.71
2018-09-10T21:02:28.879Z,19.74
2018-09-10T21:05:01.983Z,19.65
2018-09-10T21:07:32.864Z,19.58
2018-09-10T21:10:06.064Z,19.57
2018-09-10T21:12:39.153Z,19.64
2018-09-10T21:15:09.212Z,19.63
2018-09-10T21:17:39.649Z,19.65
2018-09-10T21:20:10.000Z,19.60
2018-09-10T21:22:40.238Z,19.61
2018-09-10T21:25:13.641Z,19.60
2018-09-10T21:27:44.841Z,19.50
2018-09-10T21:30:14.515Z,19.41
2018-09-10T21:32:43.973Z,19.38
2018-09-10T21:35:17.986Z,19.37
2018-09-10T21:37:52.515Z,19.36
2018-09-10T21:40:29.659Z,19.36
2018-09-10T21:42:58.423Z,19.32
2018-09-10T21:45:31.337Z,19.25
2018-09-10T21:48:00.143Z,19.22
2018-09-10T21:50:28.936Z,19.19
2018-09-10T21:52:59.833Z,19.16
2018-09-10T21:55:30.836Z,19.21
2018-09-10T21:58:00.091Z,19.19
2018-09-10T22:00:29.271Z,19.08
2018-09-10T22:02:58.309Z,19.04
2018-09-10T22:05:28.157Z,19.07
2018-09-10T22:07:58.228Z,18.99
2018-09-10T22:10:27.646Z,18.99
2018-09-10T22:12:56.940Z,19.11
2018-09-10T22:15:28.628Z,19.12
2018-09-10T22:17:58.733Z,19.08
2018-09-10T22:20:36.971Z,18.96
2018-09-10T22:23:09.442Z,19.01
2018-09-10T22:25:53.930Z,18.98
2018-09-10T22:28:33.506Z,18.93
2018-09-10T22:31:08.818Z,18.91
2018-09-10T22:33:44.046Z,18.94
2018-09-10T22:36:22.797Z,18.92
2018-09-10T22:38:55.547Z,18.92
2018-09-10T22:41:29.870Z,18.98
2018-09-10T22:44:09.969Z,18.93
2018-09-10T22:46:53.183Z,18.94
2018-09-10T22:49:42.339Z,18.93
2018-09-10T23:05:23.097Z,18.99
2018-09-10T23:07:57.168Z,18.93
2018-09-10T23:10:28.538Z,18.95
2018-09-10T23:12:57.072Z,18.95
2018-09-10T23:15:27.506Z,18.95
2018-09-10T23:18:02.457Z,18.91
2018-09-10T23:20:37.534Z,18.92
2018-09-10T23:23:10.151Z,18.94
2018-09-10T23:25:45.848Z,18.94
2018-09-10T23:28:21.863Z,18.98
2018-09-10T23:30:54.239Z,18.96
2018-09-10T23:36:13.948Z,18.92
2018-09-10T23:38:53.786Z,18.96
2018-09-10T23:41:30.673Z,18.94
2018-09-10T23:44:14.443Z,18.89
2018-09-10T23:46:53.174Z,18.88
2018-09-10T23:49:30.405Z,18.87
2018-09-10T23:54:15.749Z,18.86
2018-09-10T23:56:52.692Z,18.90
2018-09-10T23:59:26.659Z,18.92
